Time;durP1;ratioP1;P1;durP2;ratioP2;P2;SDS_P1;SDS_P2;PMS_P1;PMS_P2;Temp;Humidity;BMP_temperature;BMP_pressure;BME280_temperature;BME280_humidity;BME280_pressure;Samples;Min_cycle;Max_cycle;Signal;HPM_P1;HPM_P2
2023/10/05 00:04:15;;;;;;;5.70;1.50;;;;;;;8.74;100.00;100901.03;5097037;27;20058;-66
2023/10/05 00:06:42;;;;;;;3.63;1.10;;;;;;;8.78;100.00;100898.34;5139947;27;20043;-66
2023/10/05 00:09:18;;;;;;;3.60;1.20;;;;;;;8.92;100.00;100920.59;5130166;27;20051;-65
2023/10/05 00:11:45;;;;;;;4.50;1.30;;;;;;;8.92;100.00;100906.66;5136794;27;20176;-65
2023/10/05 00:14:12;;;;;;;4.47;1.40;;;;;;;8.83;100.00;100905.16;5137321;27;20063;-65
2023/10/05 00:16:44;;;;;;;4.18;1.35;;;;;;;8.78;100.00;100899.19;5138028;27;20357;-66
2023/10/05 00:19:12;;;;;;;5.60;1.40;;;;;;;8.83;100.00;100912.97;5130054;27;20047;-66
2023/10/05 00:21:50;;;;;;;5.35;1.55;;;;;;;8.76;100.00;100898.38;5131887;27;20043;-65
2023/10/05 00:27:15;;;;;;;3.03;1.00;;;;;;;8.78;100.00;100899.19;5108897;27;20579;-65
2023/10/05 00:29:54;;;;;;;3.03;1.10;;;;;;;8.83;100.00;100896.47;5132526;27;20051;-65
2023/10/05 00:32:38;;;;;;;5.95;1.42;;;;;;;8.78;100.00;100891.38;5138545;27;20051;-66
2023/10/05 00:35:23;;;;;;;7.35;1.30;;;;;;;8.77;100.00;100886.22;5127101;27;20042;-66
2023/10/05 00:37:50;;;;;;;3.78;1.10;;;;;;;8.81;100.00;100880.84;5127455;27;20043;-66
2023/10/05 00:43:03;;;;;;;7.85;1.48;;;;;;;8.94;100.00;100891.78;5135526;27;20055;-65
2023/10/05 00:45:31;;;;;;;;;;;;;;;9.02;100.00;100894.22;5130587;27;20081;-65
2023/10/05 00:48:09;;;;;;;5.63;1.40;;;;;;;9.01;100.00;100892.47;5123669;27;19938;-66
2023/10/05 00:50:39;;;;;;;4.90;1.30;;;;;;;9.02;100.00;100904.66;5123347;27;20043;-66
2023/10/05 00:53:08;;;;;;;7.20;2.50;;;;;;;8.99;100.00;100886.44;5128744;27;20082;-66
2023/10/05 00:55:36;;;;;;;3.95;1.38;;;;;;;8.85;100.00;100855.50;5129993;27;20055;-65
2023/10/05 00:58:12;;;;;;;5.63;1.17;;;;;;;9.20;100.00;100913.72;5132034;27;20046;-65
2023/10/05 01:00:50;;;;;;;3.30;1.20;;;;;;;9.29;100.00;100916.91;5135421;27;20536;-66
2023/10/05 01:05:56;;;;;;;3.63;1.35;;;;;;;9.25;100.00;100917.91;5135107;27;20047;-66
2023/10/05 01:08:23;;;;;;;5.38;1.23;;;;;;;9.18;100.00;100908.53;5121512;27;20035;-66
2023/10/05 01:10:53;;;;;;;12.82;1.67;;;;;;;9.08;100.00;100909.69;5135188;27;20527;-66
2023/10/05 01:13:34;;;;;;;5.07;1.42;;;;;;;9.10;100.00;100903.53;5140235;27;20039;-66
2023/10/05 01:16:15;;;;;;;3.60;1.13;;;;;;;9.15;100.00;100899.94;5125614;27;20043;-66
2023/10/05 01:18:44;;;;;;;6.18;1.38;;;;;;;9.13;100.00;100892.97;5127572;27;20047;-66
2023/10/05 01:21:11;;;;;;;4.20;1.27;;;;;;;9.20;100.00;100896.28;5133980;27;20070;-66
2023/10/05 01:23:38;;;;;;;4.22;1.63;;;;;;;9.25;100.00;100901.38;5134907;27;20039;-65
2023/10/05 01:26:12;;;;;;;4.57;1.27;;;;;;;9.23;100.00;100901.41;5136634;27;20157;-65
2023/10/05 01:28:40;;;;;;;;;;;;;;;9.29;100.00;100909.06;5130569;27;20047;-66
2023/10/05 01:31:16;;;;;;;5.47;1.40;;;;;;;9.18;100.00;100899.84;5136100;27;20384;-66
2023/10/05 01:33:44;;;;;;;5.93;1.27;;;;;;;9.13;100.00;100919.09;5130120;27;20540;-65
2023/10/05 01:36:11;;;;;;;4.20;1.40;;;;;;;9.01;100.00;100911.66;5135868;27;20510;-66
2023/10/05 01:38:39;;;;;;;8.25;1.20;;;;;;;8.94;100.00;100917.91;5130454;27;20457;-66
2023/10/05 01:41:07;;;;;;;4.82;1.70;;;;;;;8.94;100.00;100920.53;5135021;27;20069;-66
2023/10/05 01:43:35;;;;;;;3.05;1.20;;;;;;;8.92;100.00;100917.97;5136967;27;20088;-66
2023/10/05 01:46:04;;;;;;;3.10;1.10;;;;;;;8.93;100.00;100918.81;5127412;27;20055;-65
2023/10/05 01:48:31;;;;;;;3.40;1.10;;;;;;;8.87;100.00;100929.41;5128227;27;20130;-66
2023/10/05 01:51:09;;;;;;;7.28;1.55;;;;;;;8.70;100.00;100917.69;5134361;27;20053;-65
2023/10/05 01:53:36;;;;;;;6.47;1.48;;;;;;;8.80;100.00;100931.38;5135115;27;20043;-65
2023/10/05 01:56:03;;;;;;;9.02;1.88;;;;;;;8.73;100.00;100925.44;5126945;27;20043;-65
2023/10/05 01:58:31;;;;;;;5.47;1.30;;;;;;;8.73;100.00;100922.00;5135609;27;20039;-65
2023/10/05 02:00:58;;;;;;;5.97;1.38;;;;;;;8.62;100.00;100919.63;5138187;27;20465;-65
2023/10/05 02:03:25;;;;;;;7.15;1.45;;;;;;;8.74;100.00;100924.53;5137712;27;20396;-65
2023/10/05 02:05:58;;;;;;;4.93;1.40;;;;;;;8.76;100.00;100928.88;5130913;27;20061;-65
2023/10/05 02:08:27;;;;;;;7.22;1.48;;;;;;;8.75;100.00;100933.25;5125616;27;20047;-65
2023/10/05 02:10:54;;;;;;;3.30;1.15;;;;;;;8.80;100.00;100930.50;5139875;27;20484;-65
2023/10/05 02:13:23;;;;;;;4.13;1.20;;;;;;;8.82;100.00;100928.69;5136777;27;20059;-65
2023/10/05 02:15:54;;;;;;;4.70;1.33;;;;;;;8.76;100.00;100934.09;5132764;27;20047;-65
2023/10/05 02:18:24;;;;;;;4.75;1.45;;;;;;;8.73;100.00;100930.66;5141221;27;20404;-66
2023/10/05 02:20:56;;;;;;;4.82;1.20;;;;;;;8.70;100.00;100925.53;5132254;27;20126;-66
2023/10/05 02:23:26;;;;;;;7.60;1.67;;;;;;;8.72;100.00;100930.72;5142455;27;20100;-66
2023/10/05 02:25:57;;;;;;;7.63;1.63;;;;;;;8.81;100.00;100937.44;5132636;27;20047;-65
2023/10/05 02:28:27;;;;;;;3.00;1.10;;;;;;;8.78;100.00;100933.13;5124100;27;20488;-65
2023/10/05 02:30:59;;;;;;;4.00;1.10;;;;;;;8.82;100.00;100953.06;5140416;27;20050;-65
2023/10/05 02:33:31;;;;;;;5.57;1.42;;;;;;;8.79;100.00;100952.28;5136222;27;20054;-65
2023/10/05 02:36:32;;;;;;;6.05;1.23;;;;;;;8.71;100.00;100942.03;5134860;27;20312;-65
2023/10/05 02:38:53;;;;;;;5.25;1.23;;;;;;;8.70;100.00;100953.41;5120142;27;20050;-65
2023/10/05 02:41:56;;;;;;;5.22;1.42;;;;;;;8.60;100.00;100954.53;5133090;27;20134;-65
2023/10/05 02:44:27;;;;;;;4.10;1.20;;;;;;;8.46;100.00;100953.09;5126561;27;20047;-65
2023/10/05 02:46:54;;;;;;;2.42;1.00;;;;;;;8.28;100.00;100941.34;5133398;27;20043;-66
2023/10/05 02:49:24;;;;;;;5.35;1.38;;;;;;;8.20;100.00;100945.03;5125491;27;20053;-65
2023/10/05 02:51:53;;;;;;;3.35;1.20;;;;;;;8.12;100.00;100933.03;5138388;27;20129;-66
2023/10/05 02:54:24;;;;;;;3.83;1.10;;;;;;;8.13;100.00;100941.75;5142237;27;20042;-66
2023/10/05 02:56:54;;;;;;;4.15;1.25;;;;;;;7.91;100.00;100937.03;5131320;27;20096;-66
2023/10/05 02:59:26;;;;;;;4.35;1.08;;;;;;;7.89;100.00;100961.44;5132996;27;20085;-66
2023/10/05 03:02:10;;;;;;;3.60;1.15;;;;;;;7.68;100.00;100963.59;5137415;27;20051;-66
2023/10/05 03:04:47;;;;;;;5.43;1.20;;;;;;;7.56;100.00;100951.72;5137983;27;20054;-66
2023/10/05 03:07:17;;;;;;;8.18;1.50;;;;;;;7.53;100.00;100974.38;5129952;27;20054;-66
2023/10/05 03:09:46;;;;;;;4.50;1.45;;;;;;;7.45;100.00;100976.28;5141579;27;20045;-66
2023/10/05 03:12:13;;;;;;;4.03;1.48;;;;;;;7.38;100.00;100979.03;5137794;27;20076;-65
2023/10/05 03:14:43;;;;;;;5.93;1.50;;;;;;;7.32;100.00;100965.25;5137205;27;20482;-65
2023/10/05 03:17:15;;;;;;;2.75;1.05;;;;;;;7.43;100.00;100968.50;5131329;27;20055;-65
2023/10/05 03:19:43;;;;;;;7.97;2.35;;;;;;;7.53;100.00;100967.41;5133470;27;20149;-65
2023/10/05 03:22:12;;;;;;;5.35;1.42;;;;;;;7.58;100.00;100978.59;5136450;27;20047;-66
2023/10/05 03:24:44;;;;;;;4.93;1.48;;;;;;;7.55;100.00;100983.88;5127648;27;20134;-66
2023/10/05 03:27:12;;;;;;;3.78;1.17;;;;;;;7.59;100.00;100990.72;5135973;27;20495;-65
2023/10/05 03:29:38;;;;;;;4.05;1.40;;;;;;;7.42;100.00;100979.81;5124040;27;20039;-66
2023/10/05 03:34:37;;;;;;;2.38;1.00;;;;;;;7.41;100.00;100973.72;5132319;27;20066;-66
2023/10/05 03:37:07;;;;;;;4.22;1.10;;;;;;;7.54;100.00;100973.47;5133173;27;20043;-66
2023/10/05 03:39:39;;;;;;;7.45;1.52;;;;;;;7.44;100.00;100965.00;5136781;27;20047;-66
2023/10/05 03:42:06;;;;;;;3.85;1.35;;;;;;;7.37;100.00;100966.03;5133075;27;20050;-66
2023/10/05 03:44:34;;;;;;;3.00;1.17;;;;;;;7.34;100.00;100968.69;5138024;27;20472;-66
2023/10/05 03:47:00;;;;;;;3.50;1.20;;;;;;;7.18;100.00;100979.41;5131330;27;20471;-66
2023/10/05 03:49:28;;;;;;;4.68;1.35;;;;;;;6.97;100.00;100982.44;5131112;27;20043;-65
2023/10/05 03:51:55;;;;;;;3.00;1.10;;;;;;;7.01;100.00;100987.56;5137479;27;20446;-65
2023/10/05 03:54:25;;;;;;;3.13;1.30;;;;;;;7.10;100.00;100983.94;5130867;27;20047;-65
2023/10/05 03:57:10;;;;;;;3.67;1.10;;;;;;;7.20;100.00;100981.97;5135479;27;20039;-65
2023/10/05 03:59:38;;;;;;;4.75;1.30;;;;;;;7.18;100.00;100966.38;5140712;27;20496;-65
2023/10/05 04:02:06;;;;;;;3.17;1.33;;;;;;;7.15;100.00;100968.19;5129349;27;20514;-66
2023/10/05 04:04:36;;;;;;;2.45;1.17;;;;;;;7.20;100.00;100968.97;5131050;27;20074;-66
2023/10/05 04:07:04;;;;;;;2.08;1.00;;;;;;;7.19;100.00;100975.06;5128890;27;20043;-65
2023/10/05 04:09:33;;;;;;;3.33;1.02;;;;;;;7.22;100.00;100969.78;5126429;27;20051;-65
2023/10/05 04:12:00;;;;;;;5.38;1.10;;;;;;;7.07;100.00;100968.34;5120707;27;20073;-65
2023/10/05 04:14:28;;;;;;;3.03;1.23;;;;;;;7.08;100.00;100969.19;5127353;27;20462;-65
2023/10/05 04:16:58;;;;;;;3.50;1.00;;;;;;;7.07;100.00;100970.94;5130542;27;20069;-65
2023/10/05 04:19:25;;;;;;;2.92;1.08;;;;;;;7.07;100.00;100964.91;5130704;27;20126;-65
2023/10/05 04:21:55;;;;;;;2.80;1.20;;;;;;;6.92;100.00;100972.09;5129704;27;20441;-66
2023/10/05 04:24:22;;;;;;;5.35;1.40;;;;;;;6.95;100.00;100965.97;5132682;27;20055;-66
2023/10/05 04:26:51;;;;;;;4.40;1.10;;;;;;;6.90;100.00;100955.66;5128573;27;20043;-66
2023/10/05 04:29:21;;;;;;;1.60;0.98;;;;;;;6.87;100.00;100950.53;5123351;27;20043;-65
2023/10/05 04:31:48;;;;;;;2.55;1.10;;;;;;;6.92;100.00;100953.88;5125038;27;20476;-66
2023/10/05 04:34:18;;;;;;;1.77;1.00;;;;;;;7.03;100.00;100961.50;5138036;27;20310;-66
2023/10/05 04:36:46;;;;;;;4.85;1.08;;;;;;;7.05;100.00;100964.94;5130869;27;20509;-65
2023/10/05 04:39:21;;;;;;;3.22;1.10;;;;;;;7.07;100.00;100973.56;5124213;27;20477;-65
2023/10/05 04:41:49;;;;;;;2.83;1.20;;;;;;;7.09;100.00;100969.16;5123476;27;20116;-65
2023/10/05 04:44:16;;;;;;;3.45;1.02;;;;;;;7.11;100.00;100988.22;5132082;27;20415;-65
2023/10/05 04:46:49;;;;;;;4.80;1.10;;;;;;;7.09;100.00;100986.56;5137656;27;20481;-65
2023/10/05 04:49:17;;;;;;;2.30;1.02;;;;;;;7.04;100.00;100979.66;5129775;27;20050;-66
2023/10/05 04:51:44;;;;;;;3.80;1.20;;;;;;;6.77;100.00;100962.81;5136168;27;20855;-65
2023/10/05 04:54:18;;;;;;;6.18;1.35;;;;;;;6.81;100.00;100979.25;5131246;27;20070;-65
2023/10/05 04:57:02;;;;;;;2.50;1.05;;;;;;;6.81;100.00;101003.53;5135474;27;20047;-65
2023/10/05 05:02:21;;;;;;;3.10;1.20;;;;;;;6.86;100.00;100987.84;5129354;27;20051;-65
2023/10/05 05:07:21;;;;;;;2.53;1.10;;;;;;;6.97;100.00;100985.03;5133552;27;20138;-65
2023/10/05 05:09:50;;;;;;;2.58;1.02;;;;;;;6.99;100.00;100988.47;5120109;27;20393;-65
2023/10/05 05:12:17;;;;;;;2.15;1.00;;;;;;;6.97;100.00;100995.44;5131892;27;20095;-65
2023/10/05 05:14:46;;;;;;;3.65;1.10;;;;;;;6.94;100.00;100988.56;5135049;27;20478;-65
2023/10/05 05:17:14;;;;;;;2.88;1.10;;;;;;;6.89;100.00;100984.31;5130603;27;20053;-65
2023/10/05 05:19:42;;;;;;;2.75;1.10;;;;;;;6.88;100.00;100978.25;5128745;27;20042;-65
2023/10/05 05:22:08;;;;;;;2.63;1.33;;;;;;;6.80;100.00;100973.19;5124533;27;20503;-65
2023/10/05 05:24:37;;;;;;;2.90;1.20;;;;;;;6.98;100.00;101002.38;5125784;27;20067;-65
2023/10/05 05:27:19;;;;;;;4.97;1.20;;;;;;;6.95;100.00;101005.03;5127384;27;20059;-65
2023/10/05 05:29:51;;;;;;;3.47;1.25;;;;;;;6.97;100.00;101000.66;5121819;27;20043;-66
2023/10/05 05:32:19;;;;;;;2.90;1.20;;;;;;;6.92;100.00;101005.06;5125345;27;20051;-65
2023/10/05 05:34:50;;;;;;;1.95;1.08;;;;;;;6.79;100.00;100989.69;5129236;27;20448;-65
2023/10/05 05:37:29;;;;;;;4.32;1.17;;;;;;;6.88;100.00;101003.44;5126943;27;20058;-65
2023/10/05 05:40:01;;;;;;;4.20;1.20;;;;;;;6.86;100.00;101007.81;5128407;27;20377;-65
2023/10/05 05:42:30;;;;;;;4.95;1.60;;;;;;;6.96;100.00;101006.75;5125400;27;20050;-65
2023/10/05 05:44:57;;;;;;;1.83;0.95;;;;;;;6.99;100.00;101004.06;5125600;27;20047;-65
2023/10/05 05:47:24;;;;;;;4.10;1.13;;;;;;;6.94;100.00;101003.31;5121263;27;20042;-65
2023/10/05 05:49:50;;;;;;;2.67;1.10;;;;;;;6.94;100.00;101008.50;5128072;27;20047;-65
2023/10/05 05:52:17;;;;;;;3.38;1.10;;;;;;;6.89;100.00;101003.41;5120737;27;20111;-65
2023/10/05 05:54:47;;;;;;;4.38;1.30;;;;;;;6.86;100.00;101008.66;5123370;28;20050;-65
2023/10/05 05:57:20;;;;;;;2.40;1.20;;;;;;;6.77;100.00;100985.41;5127091;27;20470;-66
2023/10/05 05:59:47;;;;;;;3.72;1.10;;;;;;;6.82;100.00;101002.66;5126329;28;20049;-65
2023/10/05 06:02:14;;;;;;;3.13;1.10;;;;;;;6.78;100.00;100998.38;5122358;27;20056;-65
2023/10/05 06:04:41;;;;;;;2.88;1.10;;;;;;;6.65;100.00;100994.28;5123857;28;20072;-66
2023/10/05 06:07:11;;;;;;;5.32;1.20;;;;;;;6.54;100.00;100998.81;5118128;27;20040;-65
2023/10/05 06:09:43;;;;;;;6.18;1.30;;;;;;;6.42;100.00;100999.84;5124282;28;20051;-65
2023/10/05 06:12:12;;;;;;;4.53;1.50;;;;;;;6.39;100.00;100998.19;5127634;27;20424;-66
2023/10/05 06:14:40;;;;;;;3.85;1.27;;;;;;;6.41;100.00;100998.13;5125388;27;20040;-65
2023/10/05 06:17:08;;;;;;;4.25;1.20;;;;;;;6.37;100.00;100999.06;5120957;28;20540;-65
2023/10/05 06:19:38;;;;;;;3.72;1.40;;;;;;;6.40;100.00;101004.22;5124396;28;20043;-65
2023/10/05 06:22:06;;;;;;;2.90;1.23;;;;;;;6.55;100.00;101009.19;5126195;27;20051;-66
2023/10/05 06:24:42;;;;;;;5.47;1.48;;;;;;;6.42;100.00;101005.06;5122211;28;20047;-66
2023/10/05 06:27:09;;;;;;;4.70;1.30;;;;;;;6.38;100.00;101006.84;5121489;28;20130;-66
2023/10/05 06:29:35;;;;;;;3.22;1.20;;;;;;;6.42;100.00;101003.31;5126711;28;20035;-66
2023/10/05 06:32:08;;;;;;;3.75;1.30;;;;;;;6.53;100.00;101013.53;5125125;28;20047;-65
2023/10/05 06:34:38;;;;;;;3.53;1.35;;;;;;;6.56;100.00;101003.09;5123751;27;20159;-66
2023/10/05 06:37:04;;;;;;;3.75;1.45;;;;;;;6.66;100.00;101003.81;5121063;28;20190;-66
2023/10/05 06:39:32;;;;;;;4.30;1.40;;;;;;;6.73;100.00;100995.00;5117114;27;20039;-65
2023/10/05 06:41:58;;;;;;;3.72;1.10;;;;;;;6.74;100.00;100995.84;5128836;27;20055;-66
2023/10/05 06:44:25;;;;;;;5.07;1.35;;;;;;;6.71;100.00;100994.19;5136568;27;20053;-65
2023/10/05 06:46:55;;;;;;;6.35;1.50;;;;;;;6.81;100.00;101000.91;5138238;27;20126;-65
2023/10/05 06:49:22;;;;;;;6.88;1.58;;;;;;;6.62;100.00;100987.38;5130697;27;20039;-64
2023/10/05 06:51:49;;;;;;;2.58;1.00;;;;;;;6.80;100.00;101004.41;5133477;27;20050;-64
2023/10/05 06:54:17;;;;;;;2.97;1.23;;;;;;;6.76;100.00;100999.28;5133563;27;20472;-66
2023/10/05 06:56:49;;;;;;;2.90;1.20;;;;;;;6.76;100.00;100999.28;5129362;27;20415;-65
2023/10/05 06:59:16;;;;;;;4.80;1.25;;;;;;;6.58;100.00;101006.50;5129946;27;20042;-65
2023/10/05 07:01:42;;;;;;;5.22;1.50;;;;;;;6.67;100.00;100996.84;5132154;27;20039;-65
2023/10/05 07:04:12;;;;;;;5.00;1.40;;;;;;;6.83;100.00;100988.75;5129528;27;20043;-65
2023/10/05 07:06:39;;;;;;;6.18;1.85;;;;;;;6.84;100.00;100998.25;5127795;27;20047;-65
2023/10/05 07:09:05;;;;;;;4.63;1.45;;;;;;;6.84;100.00;101000.03;5127792;27;20369;-65
2023/10/05 07:11:33;;;;;;;12.88;11.40;;;;;;;6.90;100.00;101001.66;5123188;27;20049;-66
2023/10/05 07:14:00;;;;;;;8.25;4.55;;;;;;;7.13;100.00;101007.28;5132503;27;20051;-66
2023/10/05 07:16:26;;;;;;;8.25;2.97;;;;;;;7.25;100.00;101000.97;5131247;27;20419;-68
2023/10/05 07:18:54;;;;;;;6.50;2.40;;;;;;;7.65;100.00;100999.31;5130590;27;20047;-67
2023/10/05 07:21:21;;;;;;;6.22;2.47;;;;;;;7.98;100.00;101002.94;5127951;27;20054;-67
2023/10/05 07:23:48;;;;;;;5.25;1.90;;;;;;;7.79;100.00;101007.69;5130250;27;20046;-67
2023/10/05 07:26:14;;;;;;;6.88;2.15;;;;;;;8.18;100.00;100992.06;5129658;27;20436;-67
2023/10/05 07:28:41;;;;;;;3.63;1.35;;;;;;;9.00;100.00;101000.47;5123406;27;20054;-67
2023/10/05 07:31:09;;;;;;;5.63;1.50;;;;;;;9.61;100.00;100990.88;5127099;27;20043;-67
2023/10/05 07:33:36;;;;;;;5.65;1.40;;;;;;;10.50;100.00;100986.44;5128732;27;20481;-67
2023/10/05 07:36:03;;;;;;;5.53;1.50;;;;;;;10.58;100.00;100987.03;5125367;27;20047;-66
2023/10/05 07:38:30;;;;;;;5.80;1.70;;;;;;;10.08;100.00;100972.91;5131699;27;20632;-67
2023/10/05 07:40:57;;;;;;;6.35;1.73;;;;;;;9.58;100.00;100972.69;5121928;27;20047;-66
2023/10/05 07:43:27;;;;;;;7.22;1.60;;;;;;;9.40;100.00;100999.34;5133633;27;20051;-66
2023/10/05 07:45:55;;;;;;;6.55;1.50;;;;;;;9.38;100.00;101004.63;5127260;27;20043;-66
2023/10/05 07:48:23;;;;;;;6.13;1.85;;;;;;;9.22;100.00;100998.13;5126492;27;20557;-66
2023/10/05 07:50:50;;;;;;;5.88;1.83;;;;;;;9.26;100.00;100992.78;5123826;27;20057;-66
2023/10/05 07:53:17;;;;;;;8.00;2.00;;;;;;;10.01;100.00;100994.94;5124459;27;20092;-66
2023/10/05 07:55:43;;;;;;;5.43;2.00;;;;;;;10.43;100.00;100988.41;5123284;27;20136;-66
2023/10/05 07:58:10;;;;;;;11.18;2.70;;;;;;;10.41;100.00;100969.25;5128350;27;20440;-66
2023/10/05 08:00:37;;;;;;;8.38;2.70;;;;;;;10.06;100.00;100994.78;5130747;27;20043;-66
2023/10/05 08:03:05;;;;;;;6.72;2.13;;;;;;;10.14;100.00;100986.69;5131612;27;20065;-66
2023/10/05 08:05:32;;;;;;;5.90;1.73;;;;;;;10.44;100.00;100982.25;5125086;27;20039;-66
2023/10/05 08:08:01;;;;;;;6.35;1.85;;;;;;;10.64;100.00;100969.38;5128719;27;20058;-66
2023/10/05 08:10:28;;;;;;;6.60;1.77;;;;;;;10.96;100.00;100980.50;5129631;27;20057;-66
2023/10/05 08:12:55;;;;;;;6.88;1.75;;;;;;;10.98;100.00;100980.44;5129563;27;20051;-66
2023/10/05 08:15:21;;;;;;;7.57;1.80;;;;;;;11.14;100.00;100965.88;5128513;27;20054;-66
2023/10/05 08:17:49;;;;;;;7.07;1.70;;;;;;;10.91;100.00;100969.31;5118245;27;20130;-66
2023/10/05 08:20:20;;;;;;;7.80;2.08;;;;;;;11.16;100.00;100976.31;5124021;27;20305;-66
2023/10/05 08:22:56;;;;;;;7.88;1.95;;;;;;;11.10;100.00;100977.38;5127391;27;20125;-66
2023/10/05 08:25:23;;;;;;;10.00;2.42;;;;;;;10.98;100.00;100983.91;5126619;27;20401;-66
2023/10/05 08:27:51;;;;;;;9.20;2.20;;;;;;;10.82;100.00;100973.09;5124631;27;20134;-66
2023/10/05 08:30:19;;;;;;;7.90;1.95;;;;;;;10.94;100.00;100973.56;5124511;27;20047;-66
2023/10/05 08:32:47;;;;;;;6.53;1.92;;;;;;;10.95;100.00;100981.38;5126030;27;20051;-66
2023/10/05 08:35:18;;;;;;;8.63;2.45;;;;;;;11.16;100.00;100978.91;5131069;27;20137;-67
2023/10/05 08:37:53;;;;;;;10.77;2.85;;;;;;;11.40;100.00;100993.75;5130659;27;20047;-67
2023/10/05 08:43:16;;;;;;;10.82;2.35;;;;;;;11.25;100.00;100981.19;5119430;27;20086;-68
2023/10/05 08:45:46;;;;;;;6.35;1.90;;;;;;;11.34;100.00;100980.00;5121387;27;20349;-67
2023/10/05 08:48:53;;;;;;;8.73;2.25;;;;;;;11.56;100.00;100974.81;5122302;27;20074;-67
2023/10/05 08:51:12;;;;;;;5.93;1.65;;;;;;;11.73;100.00;100969.78;5123717;27;20049;-67
2023/10/05 08:53:48;;;;;;;4.95;1.50;;;;;;;12.11;100.00;100971.81;5122113;27;20039;-67
2023/10/05 08:56:16;;;;;;;5.10;1.30;;;;;;;12.33;100.00;100977.91;5125598;27;20159;-67
2023/10/05 08:58:45;;;;;;;2.92;1.30;;;;;;;12.38;100.00;100972.50;5127377;27;20408;-67
2023/10/05 09:01:29;;;;;;;7.53;1.55;;;;;;;12.58;100.00;100962.94;5121466;27;20341;-67
2023/10/05 09:06:47;;;;;;;2.72;1.00;;;;;;;12.59;100.00;100972.50;5125376;27;20054;-66
2023/10/05 09:09:15;;;;;;;5.53;1.15;;;;;;;12.50;100.00;100971.97;5128754;27;20053;-67
2023/10/05 09:11:42;;;;;;;4.05;1.30;;;;;;;12.56;100.00;100957.72;5129424;27;20054;-66
2023/10/05 09:14:27;;;;;;;3.90;1.20;;;;;;;12.48;100.00;100963.31;5135470;27;20051;-66
2023/10/05 09:17:07;;;;;;;4.53;1.50;;;;;;;12.46;100.00;100966.91;5130796;27;20053;-66
2023/10/05 09:19:35;;;;;;;7.47;1.80;;;;;;;12.38;100.00;100958.50;5124202;27;20417;-67
2023/10/05 09:22:10;;;;;;;6.35;1.40;;;;;;;12.56;100.00;100947.22;5129003;27;20054;-66
2023/10/05 09:24:42;;;;;;;7.03;1.65;;;;;;;12.71;100.00;100948.34;5126253;27;20051;-66
2023/10/05 09:27:17;;;;;;;4.78;1.52;;;;;;;12.79;100.00;100948.03;5122680;27;20112;-67
2023/10/05 09:29:44;;;;;;;6.85;2.03;;;;;;;12.46;100.00;100956.41;5127112;27;20444;-67
2023/10/05 09:32:30;;;;;;;5.63;1.48;;;;;;;12.75;100.00;100949.94;5129563;27;20051;-66
2023/10/05 09:35:00;;;;;;;7.80;1.98;;;;;;;12.93;100.00;100955.31;5129761;27;20051;-66
2023/10/05 09:37:28;;;;;;;6.47;1.65;;;;;;;13.01;100.00;100953.19;5122745;27;20051;-66
2023/10/05 09:39:59;;;;;;;5.13;1.70;;;;;;;13.03;100.00;100952.19;5129600;27;20059;-67
2023/10/05 09:42:27;;;;;;;3.88;1.40;;;;;;;13.21;100.00;100958.41;5129166;27;20040;-66
2023/10/05 09:44:58;;;;;;;6.28;1.70;;;;;;;13.24;100.00;100939.88;5130457;27;20054;-66
2023/10/05 09:47:27;;;;;;;3.88;1.08;;;;;;;13.40;100.00;100942.69;5128004;27;20082;-67
2023/10/05 09:49:58;;;;;;;5.72;1.30;;;;;;;13.48;100.00;100947.59;5128057;27;20091;-67
2023/10/05 09:52:31;;;;;;;4.15;1.45;;;;;;;13.46;100.00;100947.66;5130066;27;20126;-67
2023/10/05 09:54:59;;;;;;;;;;;;;;;13.60;100.00;100956.69;5125604;27;20035;-67
2023/10/05 09:57:26;;;;;;;3.97;1.20;;;;;;;13.53;100.00;100942.09;5126413;27;20040;-66
2023/10/05 09:59:59;;;;;;;9.07;2.20;;;;;;;13.49;100.00;100941.38;5124478;28;20066;-66
2023/10/05 10:02:32;;;;;;;4.20;1.25;;;;;;;13.69;100.00;100943.09;5129289;27;20457;-67
2023/10/05 10:05:05;;;;;;;3.65;1.27;;;;;;;13.62;100.00;100931.16;5129284;27;20055;-66
2023/10/05 10:07:33;;;;;;;6.60;1.88;;;;;;;13.62;100.00;100932.00;5127891;27;20138;-66
2023/10/05 10:10:03;;;;;;;3.75;1.10;;;;;;;13.72;100.00;100936.81;5122524;27;20043;-66
2023/10/05 10:12:38;;;;;;;5.78;1.77;;;;;;;13.69;100.00;100935.19;5119743;27;20473;-66
2023/10/05 10:15:09;;;;;;;4.75;1.40;;;;;;;13.55;100.00;100935.00;5117624;27;20051;-66
2023/10/05 10:17:53;;;;;;;4.63;1.42;;;;;;;13.46;100.00;100915.25;5122551;27;20043;-66
2023/10/05 10:20:35;;;;;;;6.05;1.50;;;;;;;13.53;100.00;100910.53;5137716;27;20075;-67
2023/10/05 10:23:21;;;;;;;5.18;1.38;;;;;;;13.77;100.00;100925.16;5134423;27;20054;-66
2023/10/05 10:25:51;;;;;;;5.20;1.30;;;;;;;13.82;100.00;100922.31;5128357;27;20058;-67
2023/10/05 10:28:39;;;;;;;10.68;1.83;;;;;;;13.76;100.00;100907.66;5125326;27;20069;-67
2023/10/05 10:31:17;;;;;;;4.97;1.60;;;;;;;13.61;100.00;100929.44;5132841;27;20057;-67
2023/10/05 10:33:55;;;;;;;3.97;1.15;;;;;;;13.57;100.00;100925.25;5133109;27;20047;-67
2023/10/05 10:36:56;;;;;;;7.13;1.67;;;;;;;13.34;100.00;100934.22;5124789;27;20047;-67
2023/10/05 10:39:27;;;;;;;7.75;1.77;;;;;;;13.26;100.00;100932.75;5132227;27;20107;-67
2023/10/05 10:42:04;;;;;;;7.93;2.20;;;;;;;12.95;100.00;100933.28;5129393;27;20071;-67
2023/10/05 10:44:56;;;;;;;7.22;1.58;;;;;;;13.28;100.00;100919.56;5140435;27;20050;-67
2023/10/05 10:47:22;;;;;;;8.18;1.58;;;;;;;13.25;100.00;100917.91;5128786;27;20054;-67
2023/10/05 10:50:22;;;;;;;5.25;1.50;;;;;;;13.46;100.00;100910.81;5129267;27;20532;-67
2023/10/05 10:52:50;;;;;;;8.30;1.63;;;;;;;13.24;100.00;100905.69;5133382;27;20051;-67
2023/10/05 10:55:20;;;;;;;7.75;1.70;;;;;;;13.23;100.00;100898.72;5132507;27;20062;-67
2023/10/05 10:57:53;;;;;;;5.07;1.50;;;;;;;13.20;100.00;100903.25;5120501;27;20103;-67
2023/10/05 11:03:15;;;;;;;6.15;1.35;;;;;;;13.24;100.00;100900.44;5121736;27;20059;-68
2023/10/05 11:05:52;;;;;;;9.98;1.90;;;;;;;13.33;100.00;100907.03;5130016;27;20047;-67
2023/10/05 11:08:22;;;;;;;6.22;1.42;;;;;;;13.38;100.00;100901.59;5130499;27;20107;-67
2023/10/05 11:10:55;;;;;;;6.15;1.85;;;;;;;13.50;100.00;100908.06;5120825;27;20580;-66
2023/10/05 11:13:24;;;;;;;7.68;1.90;;;;;;;13.50;100.00;100908.06;5134705;27;20049;-66
2023/10/05 11:15:59;;;;;;;7.50;2.00;;;;;;;13.21;100.00;100908.44;5122306;27;20396;-67
2023/10/05 11:18:51;;;;;;;7.18;1.95;;;;;;;13.14;100.00;100904.41;5127241;27;20116;-67
2023/10/05 11:21:23;;;;;;;6.60;2.13;;;;;;;13.27;100.00;100895.00;5145635;27;20066;-66
2023/10/05 11:23:57;;;;;;;7.07;2.25;;;;;;;13.50;100.00;100898.38;5131105;27;20095;-66
2023/10/05 11:26:33;;;;;;;10.07;2.72;;;;;;;13.43;100.00;100887.28;5126327;27;20047;-67
2023/10/05 11:29:20;;;;;;;;;;;;;;;13.28;100.00;100899.34;5134982;27;20046;-66
2023/10/05 11:31:51;;;;;;;7.13;2.15;;;;;;;13.45;100.00;100900.38;5128087;27;19926;-67
2023/10/05 11:34:39;;;;;;;8.73;2.50;;;;;;;13.37;100.00;100869.19;5122026;27;20103;-66
2023/10/05 11:37:26;;;;;;;5.10;1.80;;;;;;;13.49;100.00;100878.25;5123371;27;20047;-67
2023/10/05 11:39:59;;;;;;;8.10;2.25;;;;;;;13.50;100.00;100877.34;5127390;27;20053;-66
2023/10/05 11:42:27;;;;;;;8.20;2.60;;;;;;;13.45;100.00;100867.03;5131554;27;20043;-66
2023/10/05 11:44:57;;;;;;;7.15;2.45;;;;;;;13.37;100.00;100861.28;5118543;27;20292;-66
2023/10/05 11:47:35;;;;;;;7.50;2.45;;;;;;;13.50;100.00;100866.81;5129338;27;20179;-67
2023/10/05 11:50:06;;;;;;;7.80;2.50;;;;;;;13.62;100.00;100860.13;5125455;27;20047;-67
2023/10/05 11:52:34;;;;;;;8.50;2.65;;;;;;;13.58;100.00;100859.41;5131644;27;20039;-67
2023/10/05 11:55:01;;;;;;;6.40;2.40;;;;;;;13.57;100.00;100848.97;5132861;27;20047;-66
2023/10/05 11:57:29;;;;;;;7.95;2.92;;;;;;;13.52;100.00;100843.06;5124794;27;20247;-67
2023/10/05 11:59:59;;;;;;;7.63;3.22;;;;;;;13.60;100.00;100839.16;5131364;27;20380;-67
2023/10/05 12:02:26;;;;;;;9.40;3.13;;;;;;;13.74;100.00;100834.97;5131966;27;20050;-67
2023/10/05 12:04:54;;;;;;;10.75;4.00;;;;;;;13.52;100.00;100836.03;5129630;27;20378;-67
2023/10/05 12:07:25;;;;;;;17.10;4.05;;;;;;;13.59;100.00;100834.78;5114123;27;20493;-67